Time,TemperatureF,DewpointF,PressureIn,WindDirection,WindDirectionDegrees,WindSpeedMPH,WindSpeedGustMPH,Humidity,HourlyPrecipIn,Conditions,Clouds,dailyrainin,SoftwareType,DateUTC
2013-03-20 00:01:00,27.0,20.0,30.27,North,0,0.0,0.0,76,0.00,,,0.00,,2013-03-20 07:01:00,
2013-03-20 00:11:00,27.0,20.0,30.27,North,0,0.0,0.0,76,0.00,,,0.00,,2013-03-20 07:11:00,
2013-03-20 00:21:00,27.0,21.0,30.28,North,0,0.0,2.0,77,0.00,,,0.00,,2013-03-20 07:21:00,
2013-03-20 00:31:00,28.0,21.0,30.27,North,0,0.0,2.0,76,0.00,,,0.00,,2013-03-20 07:31:00,
2013-03-20 00:41:00,28.0,21.0,30.27,North,0,0.0,2.0,76,0.00,,,0.00,,2013-03-20 07:41:00,
2013-03-20 00:52:00,28.0,21.0,30.27,North,0,0.0,1.0,74,0.00,,,0.00,,2013-03-20 07:52:00,
2013-03-20 01:01:00,29.0,21.0,30.26,North,0,0.0,0.0,73,0.00,,,0.00,,2013-03-20 08:01:00,
2013-03-20 01:12:00,29.0,21.0,30.26,North,0,0.0,0.0,73,0.00,,,0.00,,2013-03-20 08:12:00,
2013-03-20 01:21:00,30.0,22.0,30.26,North,0,0.0,1.0,72,0.00,,,0.00,,2013-03-20 08:21:00,
2013-03-20 01:32:00,30.0,22.0,30.26,North,0,0.0,3.0,71,0.00,,,0.00,,2013-03-20 08:32:00,
2013-03-20 01:41:00,30.0,22.0,30.26,North,0,0.0,3.0,71,0.00,,,0.00,,2013-03-20 08:41:00,
2013-03-20 01:52:00,31.0,22.0,30.26,North,1,1.0,3.0,70,0.00,,,0.00,,2013-03-20 08:52:00,
2013-03-20 02:01:00,32.0,23.0,30.23,North,0,0.0,2.0,68,0.00,,,0.00,,2013-03-20 09:01:00,
2013-03-20 02:11:00,32.0,23.0,30.23,North,0,0.0,2.0,68,0.00,,,0.00,,2013-03-20 09:11:00,
2013-03-20 02:22:00,32.0,23.0,30.23,North,0,0.0,2.0,68,0.00,,,0.00,,2013-03-20 09:22:00,
2013-03-20 02:32:00,32.0,22.0,30.23,North,0,0.0,2.0,66,0.00,,,0.00,,2013-03-20 09:32:00,
2013-03-20 02:42:00,32.0,22.0,30.23,North,0,0.0,2.0,66,0.00,,,0.00,,2013-03-20 09:42:00,
2013-03-20 02:53:00,31.0,22.0,30.23,North,0,0.0,1.0,68,0.00,,,0.00,,2013-03-20 09:53:00,
2013-03-20 03:02:00,31.0,22.0,30.23,North,0,0.0,1.0,68,0.00,,,0.00,,2013-03-20 10:02:00,
2013-03-20 03:12:00,31.0,22.0,30.23,North,0,0.0,1.0,68,0.00,,,0.00,,2013-03-20 10:12:00,
2013-03-20 03:22:00,31.0,22.0,30.22,North,0,0.0,2.0,69,0.00,,,0.00,,2013-03-20 10:22:00,
2013-03-20 03:32:00,31.0,22.0,30.22,SSW,201,1.0,3.0,69,0.00,,,0.00,,2013-03-20 10:32:00,
2013-03-20 03:43:00,31.0,22.0,30.22,SSW,201,1.0,3.0,69,0.00,,,0.00,,2013-03-20 10:43:00,
2013-03-20 03:53:00,31.0,22.0,30.22,North,0,0.0,1.0,69,0.00,,,0.00,,2013-03-20 10:53:00,
2013-03-20 04:02:00,31.0,22.0,30.22,North,0,0.0,1.0,69,0.00,,,0.00,,2013-03-20 11:02:00,
2013-03-20 04:11:00,31.0,22.0,30.22,North,0,0.0,1.0,69,0.00,,,0.00,,2013-03-20 11:11:00,
2013-03-20 04:22:00,31.0,22.0,30.21,North,0,0.0,3.0,68,0.00,,,0.00,,2013-03-20 11:22:00,
2013-03-20 04:31:00,32.0,23.0,30.20,North,0,0.0,2.0,68,0.00,,,0.00,,2013-03-20 11:31:00,
2013-03-20 04:42:00,32.0,23.0,30.20,North,0,0.0,2.0,68,0.00,,,0.00,,2013-03-20 11:42:00,
2013-03-20 04:52:00,31.0,22.0,30.20,North,0,0.0,1.0,68,0.00,,,0.00,,2013-03-20 11:52:00,
2013-03-20 05:01:00,32.0,23.0,30.20,North,0,0.0,2.0,69,0.00,,,0.00,,2013-03-20 12:01:00,
2013-03-20 05:11:00,32.0,23.0,30.20,North,0,0.0,2.0,69,0.00,,,0.00,,2013-03-20 12:11:00,
2013-03-20 05:21:00,31.0,22.0,30.20,North,0,0.0,2.0,69,0.00,,,0.00,,2013-03-20 12:21:00,
2013-03-20 05:31:00,32.0,23.0,30.20,North,0,0.0,3.0,69,0.00,,,0.00,,2013-03-20 12:31:00,
2013-03-20 05:42:00,32.0,23.0,30.20,North,0,0.0,3.0,69,0.00,,,0.00,,2013-03-20 12:42:00,
2013-03-20 05:51:00,32.0,23.0,30.21,North,0,0.0,1.0,69,0.00,,,0.00,,2013-03-20 12:51:00,
2013-03-20 06:02:00,32.0,23.0,30.20,North,0,0.0,2.0,69,0.00,,,0.00,,2013-03-20 13:02:00,
2013-03-20 06:12:00,32.0,23.0,30.20,North,0,0.0,2.0,69,0.00,,,0.00,,2013-03-20 13:12:00,
2013-03-20 06:22:00,32.0,23.0,30.20,North,0,0.0,3.0,68,0.00,,,0.00,,2013-03-20 13:22:00,
2013-03-20 06:32:00,32.0,23.0,30.19,North,0,0.0,3.0,69,0.00,,,0.00,,2013-03-20 13:32:00,
2013-03-20 06:42:00,32.0,23.0,30.19,North,0,0.0,3.0,69,0.00,,,0.00,,2013-03-20 13:42:00,
2013-03-20 06:52:00,32.0,23.0,30.19,North,0,0.0,2.0,69,0.00,,,0.00,,2013-03-20 13:52:00,
2013-03-20 07:02:00,32.0,23.0,30.18,SSW,199,1.0,2.0,70,0.00,,,0.00,,2013-03-20 14:02:00,
2013-03-20 07:12:00,32.0,23.0,30.18,SSW,199,1.0,2.0,70,0.00,,,0.00,,2013-03-20 14:12:00,
2013-03-20 07:22:00,33.0,24.0,30.19,North,0,0.0,2.0,70,0.00,,,0.00,,2013-03-20 14:22:00,
2013-03-20 07:32:00,34.0,25.0,30.18,North,0,0.0,3.0,69,0.00,,,0.00,,2013-03-20 14:32:00,
2013-03-20 07:42:00,34.0,25.0,30.18,North,0,0.0,3.0,69,0.00,,,0.00,,2013-03-20 14:42:00,
2013-03-20 07:52:00,34.0,25.0,30.18,North,0,0.0,3.0,69,0.00,,,0.00,,2013-03-20 14:52:00,
2013-03-20 08:02:00,35.0,26.0,30.18,North,0,0.0,1.0,70,0.00,,,0.00,,2013-03-20 15:02:00,
2013-03-20 08:12:00,37.0,28.0,30.19,North,0,0.0,5.0,69,0.00,,,0.00,,2013-03-20 15:12:00,
2013-03-20 08:22:00,37.0,28.0,30.19,North,0,0.0,5.0,69,0.00,,,0.00,,2013-03-20 15:22:00,
2013-03-20 08:33:00,38.0,28.0,30.19,SSE,164,1.0,3.0,66,0.00,,,0.00,,2013-03-20 15:33:00,
2013-03-20 08:42:00,38.0,28.0,30.19,SSE,164,1.0,3.0,66,0.00,,,0.00,,2013-03-20 15:42:00,
2013-03-20 08:53:00,40.0,30.0,30.18,North,0,0.0,3.0,66,0.00,,,0.00,,2013-03-20 15:53:00,
2013-03-20 09:02:00,43.0,28.0,30.17,SSW,207,3.0,6.0,56,0.00,,,0.00,,2013-03-20 16:02:00,
2013-03-20 09:22:00,47.0,27.0,30.17,SSW,210,7.0,14.0,46,0.00,,,0.00,,2013-03-20 16:22:00,
2013-03-20 09:52:00,52.0,28.0,30.16,SSW,208,8.0,15.0,39,0.00,,,0.00,,2013-03-20 16:52:00,
2013-03-20 10:03:00,52.0,28.0,30.17,SSW,210,8.0,19.0,39,0.00,,,0.00,,2013-03-20 17:03:00,
2013-03-20 10:32:00,53.0,27.0,30.15,SW,219,9.0,18.0,37,0.00,,,0.00,,2013-03-20 17:32:00,
2013-03-20 10:42:00,53.0,27.0,30.15,SW,219,9.0,18.0,37,0.00,,,0.00,,2013-03-20 17:42:00,
2013-03-20 10:52:00,53.0,27.0,30.15,SW,219,9.0,18.0,37,0.00,,,0.00,,2013-03-20 17:52:00,
2013-03-20 11:02:00,53.0,27.0,30.15,SW,219,9.0,18.0,37,0.00,,,0.00,,2013-03-20 18:02:00,
2013-03-20 11:11:00,53.0,27.0,30.15,SW,219,9.0,18.0,37,0.00,,,0.00,,2013-03-20 18:11:00,
2013-03-20 11:22:00,55.0,29.0,30.14,SSW,212,13.0,19.0,36,0.00,,,0.00,,2013-03-20 18:22:00,
2013-03-20 11:34:00,55.0,29.0,30.14,SSW,212,13.0,19.0,36,0.00,,,0.00,,2013-03-20 18:34:00,
2013-03-20 11:43:00,55.0,29.0,30.14,SSW,212,13.0,19.0,36,0.00,,,0.00,,2013-03-20 18:43:00,
2013-03-20 11:52:00,55.0,30.0,30.13,SW,223,13.0,22.0,38,0.00,,,0.00,,2013-03-20 18:52:00,
2013-03-20 12:01:00,56.0,29.0,30.12,SSW,212,11.0,23.0,35,0.00,,,0.00,,2013-03-20 19:01:00,
2013-03-20 12:12:00,56.0,29.0,30.12,SSW,212,11.0,23.0,35,0.00,,,0.00,,2013-03-20 19:12:00,
2013-03-20 12:21:00,56.0,29.0,30.13,SSW,210,13.0,26.0,35,0.00,,,0.00,,2013-03-20 19:21:00,
2013-03-20 12:32:00,57.0,30.0,30.12,SW,214,6.0,26.0,36,0.00,,,0.00,,2013-03-20 19:32:00,
2013-03-20 12:42:00,57.0,30.0,30.12,SW,214,6.0,26.0,36,0.00,,,0.00,,2013-03-20 19:42:00,
2013-03-20 12:53:00,57.0,29.0,30.12,SSW,209,13.0,28.0,34,0.00,,,0.00,,2013-03-20 19:53:00,
2013-03-20 13:01:00,57.0,29.0,30.12,SW,221,14.0,23.0,34,0.00,,,0.00,,2013-03-20 20:01:00,
2013-03-20 13:12:00,57.0,29.0,30.12,SW,221,14.0,23.0,34,0.00,,,0.00,,2013-03-20 20:12:00,
2013-03-20 13:22:00,57.0,29.0,30.10,SW,221,12.0,27.0,34,0.00,,,0.00,,2013-03-20 20:22:00,
2013-03-20 13:31:00,57.0,29.0,30.10,SW,226,13.0,25.0,34,0.00,,,0.00,,2013-03-20 20:31:00,
2013-03-20 13:42:00,57.0,29.0,30.10,SW,226,13.0,25.0,34,0.00,,,0.00,,2013-03-20 20:42:00,
2013-03-20 13:52:00,57.0,29.0,30.10,SW,226,13.0,25.0,34,0.00,,,0.00,,2013-03-20 20:52:00,
2013-03-20 14:01:00,58.0,28.0,30.09,WSW,244,9.0,25.0,31,0.00,,,0.00,,2013-03-20 21:01:00,
2013-03-20 14:22:00,58.0,27.0,30.08,WSW,253,15.0,34.0,30,0.00,,,0.00,,2013-03-20 21:22:00,
2013-03-20 14:33:00,58.0,28.0,30.07,SW,235,17.0,28.0,31,0.00,,,0.00,,2013-03-20 21:33:00,
2013-03-20 14:42:00,58.0,28.0,30.07,SW,235,17.0,28.0,31,0.00,,,0.00,,2013-03-20 21:42:00,
2013-03-20 14:52:00,58.0,28.0,30.06,WSW,244,8.0,29.0,31,0.00,,,0.00,,2013-03-20 21:52:00,
2013-03-20 15:02:00,58.0,28.0,30.06,WSW,244,8.0,29.0,31,0.00,,,0.00,,2013-03-20 22:02:00,
2013-03-20 15:12:00,58.0,28.0,30.06,WSW,244,8.0,29.0,31,0.00,,,0.00,,2013-03-20 22:12:00,
2013-03-20 15:22:00,58.0,28.0,30.06,WSW,244,8.0,29.0,31,0.00,,,0.00,,2013-03-20 22:22:00,
2013-03-20 15:32:00,58.0,28.0,30.06,WSW,244,8.0,29.0,31,0.00,,,0.00,,2013-03-20 22:32:00,
2013-03-20 15:52:00,58.0,28.0,30.06,WSW,248,11.0,24.0,32,0.00,,,0.00,,2013-03-20 22:52:00,
2013-03-20 16:02:00,57.0,27.0,30.04,WSW,254,13.0,25.0,31,0.00,,,0.00,,2013-03-20 23:02:00,
2013-03-20 16:12:00,57.0,27.0,30.04,WSW,254,13.0,25.0,31,0.00,,,0.00,,2013-03-20 23:12:00,
2013-03-20 16:22:00,57.0,26.0,30.04,SW,229,9.0,27.0,30,0.00,,,0.00,,2013-03-20 23:22:00,
2013-03-20 16:32:00,57.0,26.0,30.04,SW,229,9.0,27.0,30,0.00,,,0.00,,2013-03-20 23:32:00,
2013-03-20 16:42:00,57.0,26.0,30.04,SW,229,9.0,27.0,30,0.00,,,0.00,,2013-03-20 23:42:00,
2013-03-20 16:52:00,57.0,26.0,30.04,SW,229,9.0,27.0,30,0.00,,,0.00,,2013-03-20 23:52:00,
2013-03-20 17:01:00,57.0,26.0,30.03,SW,233,11.0,30.0,30,0.00,,,0.00,,2013-03-21 00:01:00,
2013-03-20 17:12:00,57.0,26.0,30.03,SW,233,11.0,30.0,30,0.00,,,0.00,,2013-03-21 00:12:00,
2013-03-20 17:22:00,57.0,26.0,30.03,SW,233,11.0,30.0,30,0.00,,,0.00,,2013-03-21 00:22:00,
2013-03-20 17:32:00,57.0,26.0,30.03,SW,233,11.0,30.0,30,0.00,,,0.00,,2013-03-21 00:32:00,
2013-03-20 17:52:00,55.0,26.0,30.03,WSW,237,12.0,27.0,32,0.00,,,0.00,,2013-03-21 00:52:00,
2013-03-20 18:02:00,55.0,26.0,30.04,WSW,243,11.0,23.0,32,0.00,,,0.00,,2013-03-21 01:02:00,
2013-03-20 18:11:00,55.0,26.0,30.04,WSW,243,11.0,23.0,32,0.00,,,0.00,,2013-03-21 01:11:00,
2013-03-20 18:21:00,54.0,26.0,30.03,WSW,246,9.0,21.0,33,0.00,,,0.00,,2013-03-21 01:21:00,
2013-03-20 18:31:00,54.0,25.0,30.03,WSW,242,12.0,23.0,32,0.00,,,0.00,,2013-03-21 01:31:00,
2013-03-20 18:41:00,54.0,25.0,30.03,WSW,242,12.0,23.0,32,0.00,,,0.00,,2013-03-21 01:41:00,
2013-03-20 18:52:00,54.0,26.0,30.03,WSW,247,13.0,23.0,33,0.00,,,0.00,,2013-03-21 01:52:00,
2013-03-20 19:01:00,53.0,25.0,30.04,WSW,248,11.0,18.0,33,0.00,,,0.00,,2013-03-21 02:01:00,
2013-03-20 19:11:00,53.0,25.0,30.04,WSW,248,11.0,18.0,33,0.00,,,0.00,,2013-03-21 02:11:00,
2013-03-20 19:22:00,53.0,25.0,30.03,WSW,245,11.0,22.0,33,0.00,,,0.00,,2013-03-21 02:22:00,
2013-03-20 19:32:00,53.0,25.0,30.03,WSW,246,7.0,19.0,34,0.00,,,0.00,,2013-03-21 02:32:00,
2013-03-20 19:42:00,53.0,25.0,30.03,WSW,246,7.0,19.0,34,0.00,,,0.00,,2013-03-21 02:42:00,
2013-03-20 19:51:00,53.0,25.0,30.03,WSW,246,7.0,19.0,34,0.00,,,0.00,,2013-03-21 02:51:00,
2013-03-20 20:02:00,52.0,26.0,30.04,WSW,243,11.0,19.0,36,0.00,,,0.00,,2013-03-21 03:02:00,
2013-03-20 20:12:00,52.0,26.0,30.04,WSW,243,11.0,19.0,36,0.00,,,0.00,,2013-03-21 03:12:00,
2013-03-20 20:21:00,52.0,26.0,30.04,WSW,243,11.0,19.0,36,0.00,,,0.00,,2013-03-21 03:21:00,
2013-03-20 20:32:00,52.0,26.0,30.04,WSW,243,11.0,19.0,36,0.00,,,0.00,,2013-03-21 03:32:00,
2013-03-20 20:42:00,52.0,26.0,30.04,WSW,243,11.0,19.0,36,0.00,,,0.00,,2013-03-21 03:42:00,
2013-03-20 20:53:00,51.0,27.0,30.03,WSW,254,10.0,18.0,39,0.00,,,0.00,,2013-03-21 03:53:00,
2013-03-20 21:02:00,51.0,27.0,30.03,WSW,249,9.0,19.0,39,0.00,,,0.00,,2013-03-21 04:02:00,
2013-03-20 21:12:00,51.0,27.0,30.03,WSW,249,9.0,19.0,39,0.00,,,0.00,,2013-03-21 04:12:00,
2013-03-20 21:22:00,51.0,28.0,30.02,WSW,247,6.0,19.0,40,0.00,,,0.00,,2013-03-21 04:22:00,
2013-03-20 21:32:00,51.0,28.0,30.02,West,260,9.0,18.0,40,0.00,,,0.00,,2013-03-21 04:32:00,
2013-03-20 21:43:00,51.0,28.0,30.02,West,260,9.0,18.0,40,0.00,,,0.00,,2013-03-21 04:43:00,
2013-03-20 21:53:00,51.0,28.0,30.02,West,260,9.0,18.0,40,0.00,,,0.00,,2013-03-21 04:53:00,
2013-03-20 22:02:00,51.0,28.0,30.01,WSW,249,8.0,19.0,41,0.00,,,0.00,,2013-03-21 05:02:00,
2013-03-20 22:12:00,51.0,28.0,30.01,WSW,249,8.0,19.0,41,0.00,,,0.00,,2013-03-21 05:12:00,
2013-03-20 22:22:00,51.0,28.0,30.01,WSW,243,8.0,23.0,41,0.00,,,0.00,,2013-03-21 05:22:00,
2013-03-20 22:32:00,50.0,28.0,30.02,WSW,242,8.0,18.0,42,0.00,,,0.00,,2013-03-21 05:32:00,
2013-03-20 22:43:00,50.0,28.0,30.02,SW,232,7.0,21.0,43,0.00,,,0.00,,2013-03-21 05:43:00,
2013-03-20 22:52:00,50.0,28.0,30.02,SW,232,7.0,21.0,43,0.00,,,0.00,,2013-03-21 05:52:00,
2013-03-20 23:02:00,49.0,28.0,30.01,SW,236,8.0,19.0,44,0.00,,,0.00,,2013-03-21 06:02:00,
2013-03-20 23:11:00,49.0,28.0,30.01,SW,236,8.0,19.0,44,0.00,,,0.00,,2013-03-21 06:11:00,
2013-03-20 23:21:00,49.0,28.0,30.00,WSW,237,8.0,19.0,44,0.00,,,0.00,,2013-03-21 06:21:00,
2013-03-20 23:31:00,49.0,28.0,30.00,SW,230,8.0,19.0,44,0.00,,,0.00,,2013-03-21 06:31:00,
2013-03-20 23:41:00,49.0,28.0,30.00,SW,230,8.0,19.0,44,0.00,,,0.00,,2013-03-21 06:41:00,
2013-03-20 23:51:00,49.0,29.0,29.99,WSW,241,7.0,19.0,45,0.00,,,0.00,,2013-03-21 06:51:00,